sensor_id;sensor_type;location;lat;lon;timestamp;P1;durP1;ratioP1;P2;durP2;ratioP2
45316;SDS011;31053;55.870;37.592;2023-04-01T00:01:20;10.35;;;5.70;;
45316;SDS011;31053;55.870;37.592;2023-04-01T00:04:25;12.77;;;6.63;;
45316;SDS011;31053;55.870;37.592;2023-04-01T00:07:30;11.60;;;6.28;;
45316;SDS011;31053;55.870;37.592;2023-04-01T00:10:35;18.25;;;7.38;;
45316;SDS011;31053;55.870;37.592;2023-04-01T00:13:39;14.10;;;7.20;;
45316;SDS011;31053;55.870;37.592;2023-04-01T00:16:45;13.52;;;6.78;;
45316;SDS011;31053;55.870;37.592;2023-04-01T00:19:49;16.90;;;6.68;;
45316;SDS011;31053;55.870;37.592;2023-04-01T00:22:54;18.20;;;8.75;;
45316;SDS011;31053;55.870;37.592;2023-04-01T00:26:00;13.27;;;6.85;;
45316;SDS011;31053;55.870;37.592;2023-04-01T00:29:05;14.77;;;8.48;;
45316;SDS011;31053;55.870;37.592;2023-04-01T00:32:12;16.03;;;7.57;;
45316;SDS011;31053;55.870;37.592;2023-04-01T00:35:17;17.95;;;7.60;;
45316;SDS011;31053;55.870;37.592;2023-04-01T00:38:22;16.48;;;8.10;;
45316;SDS011;31053;55.870;37.592;2023-04-01T00:41:26;15.18;;;7.05;;
45316;SDS011;31053;55.870;37.592;2023-04-01T00:44:32;18.88;;;7.95;;
45316;SDS011;31053;55.870;37.592;2023-04-01T00:50:45;9.75;;;4.65;;
45316;SDS011;31053;55.870;37.592;2023-04-01T00:53:53;19.58;;;7.60;;
45316;SDS011;31053;55.870;37.592;2023-04-01T00:57:01;13.18;;;6.32;;
45316;SDS011;31053;55.870;37.592;2023-04-01T01:00:11;11.13;;;5.47;;
45316;SDS011;31053;55.870;37.592;2023-04-01T01:03:18;8.77;;;4.55;;
45316;SDS011;31053;55.870;37.592;2023-04-01T01:21:05;8.82;;;3.42;;
45316;SDS011;31053;55.870;37.592;2023-04-01T01:27:31;7.40;;;3.83;;
45316;SDS011;31053;55.870;37.592;2023-04-01T01:30:42;8.32;;;5.10;;
45316;SDS011;31053;55.870;37.592;2023-04-01T01:40:15;6.15;;;2.90;;
45316;SDS011;31053;55.870;37.592;2023-04-01T01:43:29;5.72;;;3.35;;
45316;SDS011;31053;55.870;37.592;2023-04-01T01:46:35;6.88;;;3.70;;
45316;SDS011;31053;55.870;37.592;2023-04-01T01:49:40;5.70;;;2.90;;
45316;SDS011;31053;55.870;37.592;2023-04-01T01:52:46;13.23;;;6.47;;
45316;SDS011;31053;55.870;37.592;2023-04-01T01:55:51;7.88;;;3.97;;
45316;SDS011;31053;55.870;37.592;2023-04-01T01:59:01;7.40;;;3.67;;
45316;SDS011;31053;55.870;37.592;2023-04-01T02:02:08;5.53;;;3.10;;
45316;SDS011;31053;55.870;37.592;2023-04-01T02:05:21;7.57;;;3.33;;
45316;SDS011;31053;55.870;37.592;2023-04-01T02:15:04;6.22;;;3.97;;
45316;SDS011;31053;55.870;37.592;2023-04-01T02:18:13;9.18;;;4.07;;
45316;SDS011;31053;55.870;37.592;2023-04-01T02:21:18;4.80;;;2.58;;
45316;SDS011;31053;55.870;37.592;2023-04-01T02:24:25;4.25;;;2.15;;
45316;SDS011;31053;55.870;37.592;2023-04-01T02:30:36;3.63;;;2.33;;
45316;SDS011;31053;55.870;37.592;2023-04-01T02:33:42;6.00;;;2.88;;
45316;SDS011;31053;55.870;37.592;2023-04-01T02:36:47;6.88;;;3.15;;
45316;SDS011;31053;55.870;37.592;2023-04-01T02:39:52;3.95;;;2.53;;
45316;SDS011;31053;55.870;37.592;2023-04-01T02:42:58;10.55;;;3.47;;
45316;SDS011;31053;55.870;37.592;2023-04-01T02:46:02;5.72;;;3.42;;
45316;SDS011;31053;55.870;37.592;2023-04-01T02:49:07;5.25;;;3.03;;
45316;SDS011;31053;55.870;37.592;2023-04-01T02:52:11;4.85;;;2.80;;
45316;SDS011;31053;55.870;37.592;2023-04-01T02:55:16;7.65;;;4.43;;
45316;SDS011;31053;55.870;37.592;2023-04-01T02:58:21;10.95;;;5.22;;
45316;SDS011;31053;55.870;37.592;2023-04-01T03:01:25;11.20;;;5.15;;
45316;SDS011;31053;55.870;37.592;2023-04-01T03:04:33;7.18;;;4.15;;
45316;SDS011;31053;55.870;37.592;2023-04-01T03:07:38;11.32;;;5.30;;
45316;SDS011;31053;55.870;37.592;2023-04-01T03:10:42;14.55;;;6.22;;
45316;SDS011;31053;55.870;37.592;2023-04-01T03:13:47;30.55;;;6.32;;
45316;SDS011;31053;55.870;37.592;2023-04-01T03:16:53;9.27;;;4.30;;
45316;SDS011;31053;55.870;37.592;2023-04-01T03:19:58;13.48;;;6.50;;
45316;SDS011;31053;55.870;37.592;2023-04-01T03:23:02;11.43;;;6.72;;
45316;SDS011;31053;55.870;37.592;2023-04-01T03:26:07;10.55;;;5.47;;
45316;SDS011;31053;55.870;37.592;2023-04-01T03:29:11;11.80;;;6.47;;
45316;SDS011;31053;55.870;37.592;2023-04-01T03:32:16;15.45;;;7.43;;
45316;SDS011;31053;55.870;37.592;2023-04-01T03:35:22;10.70;;;5.78;;
45316;SDS011;31053;55.870;37.592;2023-04-01T03:38:26;14.00;;;6.68;;
45316;SDS011;31053;55.870;37.592;2023-04-01T03:41:31;12.02;;;6.38;;
45316;SDS011;31053;55.870;37.592;2023-04-01T03:44:37;16.48;;;8.43;;
45316;SDS011;31053;55.870;37.592;2023-04-01T03:47:47;15.95;;;5.35;;
45316;SDS011;31053;55.870;37.592;2023-04-01T03:50:52;14.85;;;6.57;;
45316;SDS011;31053;55.870;37.592;2023-04-01T03:53:56;10.30;;;6.32;;
45316;SDS011;31053;55.870;37.592;2023-04-01T03:57:01;10.27;;;4.90;;
45316;SDS011;31053;55.870;37.592;2023-04-01T04:00:07;11.80;;;6.13;;
45316;SDS011;31053;55.870;37.592;2023-04-01T04:03:18;10.88;;;6.03;;
45316;SDS011;31053;55.870;37.592;2023-04-01T04:06:23;20.45;;;7.55;;
45316;SDS011;31053;55.870;37.592;2023-04-01T04:09:32;14.68;;;6.22;;
45316;SDS011;31053;55.870;37.592;2023-04-01T04:12:37;12.45;;;6.63;;
45316;SDS011;31053;55.870;37.592;2023-04-01T04:15:42;16.38;;;6.20;;
45316;SDS011;31053;55.870;37.592;2023-04-01T04:18:47;17.90;;;7.97;;
45316;SDS011;31053;55.870;37.592;2023-04-01T04:21:51;11.45;;;6.32;;
45316;SDS011;31053;55.870;37.592;2023-04-01T04:24:56;15.10;;;7.13;;
45316;SDS011;31053;55.870;37.592;2023-04-01T04:28:01;16.77;;;7.88;;
45316;SDS011;31053;55.870;37.592;2023-04-01T04:31:06;10.80;;;5.35;;
45316;SDS011;31053;55.870;37.592;2023-04-01T04:34:13;8.10;;;4.63;;
45316;SDS011;31053;55.870;37.592;2023-04-01T04:37:18;7.00;;;2.27;;
45316;SDS011;31053;55.870;37.592;2023-04-01T04:40:23;11.63;;;5.55;;
45316;SDS011;31053;55.870;37.592;2023-04-01T04:43:28;15.82;;;6.35;;
45316;SDS011;31053;55.870;37.592;2023-04-01T04:46:33;14.43;;;7.23;;
45316;SDS011;31053;55.870;37.592;2023-04-01T04:49:48;11.27;;;6.03;;
45316;SDS011;31053;55.870;37.592;2023-04-01T04:52:53;12.18;;;5.25;;
45316;SDS011;31053;55.870;37.592;2023-04-01T04:56:00;12.10;;;4.13;;
45316;SDS011;31053;55.870;37.592;2023-04-01T04:59:20;13.70;;;6.38;;
45316;SDS011;31053;55.870;37.592;2023-04-01T05:02:45;15.85;;;6.88;;
45316;SDS011;31053;55.870;37.592;2023-04-01T05:05:51;12.30;;;6.65;;
45316;SDS011;31053;55.870;37.592;2023-04-01T05:08:57;11.00;;;6.88;;
45316;SDS011;31053;55.870;37.592;2023-04-01T05:12:02;14.82;;;7.70;;
45316;SDS011;31053;55.870;37.592;2023-04-01T05:15:17;13.27;;;7.85;;
45316;SDS011;31053;55.870;37.592;2023-04-01T05:18:23;9.18;;;5.00;;
45316;SDS011;31053;55.870;37.592;2023-04-01T05:21:28;15.93;;;7.80;;
45316;SDS011;31053;55.870;37.592;2023-04-01T05:24:34;11.07;;;6.05;;
45316;SDS011;31053;55.870;37.592;2023-04-01T05:27:39;16.52;;;7.25;;
45316;SDS011;31053;55.870;37.592;2023-04-01T05:30:48;19.05;;;8.43;;
45316;SDS011;31053;55.870;37.592;2023-04-01T05:34:02;15.18;;;6.22;;
45316;SDS011;31053;55.870;37.592;2023-04-01T05:37:07;12.02;;;6.55;;
45316;SDS011;31053;55.870;37.592;2023-04-01T05:40:12;8.60;;;4.82;;
45316;SDS011;31053;55.870;37.592;2023-04-01T05:43:17;13.93;;;7.28;;
45316;SDS011;31053;55.870;37.592;2023-04-01T05:46:24;13.65;;;7.45;;
45316;SDS011;31053;55.870;37.592;2023-04-01T05:49:35;11.15;;;7.10;;
45316;SDS011;31053;55.870;37.592;2023-04-01T05:52:41;11.73;;;6.50;;
45316;SDS011;31053;55.870;37.592;2023-04-01T05:55:46;15.25;;;7.60;;
45316;SDS011;31053;55.870;37.592;2023-04-01T05:58:53;15.60;;;9.18;;
45316;SDS011;31053;55.870;37.592;2023-04-01T06:02:00;13.70;;;8.15;;
45316;SDS011;31053;55.870;37.592;2023-04-01T06:05:13;11.43;;;6.47;;
45316;SDS011;31053;55.870;37.592;2023-04-01T06:08:21;47.83;;;22.40;;
45316;SDS011;31053;55.870;37.592;2023-04-01T06:15:04;19.45;;;10.77;;
45316;SDS011;31053;55.870;37.592;2023-04-01T06:22:00;19.77;;;10.10;;
45316;SDS011;31053;55.870;37.592;2023-04-01T06:39:17;10.15;;;6.57;;
45316;SDS011;31053;55.870;37.592;2023-04-01T06:42:44;16.67;;;9.10;;
45316;SDS011;31053;55.870;37.592;2023-04-01T06:46:34;14.85;;;7.55;;
45316;SDS011;31053;55.870;37.592;2023-04-01T06:50:19;10.65;;;6.97;;
45316;SDS011;31053;55.870;37.592;2023-04-01T06:57:41;10.93;;;6.32;;
45316;SDS011;31053;55.870;37.592;2023-04-01T07:00:58;15.02;;;8.30;;
45316;SDS011;31053;55.870;37.592;2023-04-01T07:04:18;11.77;;;7.10;;
45316;SDS011;31053;55.870;37.592;2023-04-01T07:07:49;15.35;;;8.50;;
45316;SDS011;31053;55.870;37.592;2023-04-01T07:11:04;18.90;;;10.38;;
45316;SDS011;31053;55.870;37.592;2023-04-01T07:14:48;11.48;;;6.32;;
45316;SDS011;31053;55.870;37.592;2023-04-01T07:17:56;12.65;;;7.80;;
45316;SDS011;31053;55.870;37.592;2023-04-01T07:21:22;8.68;;;5.45;;
45316;SDS011;31053;55.870;37.592;2023-04-01T07:24:39;7.65;;;5.07;;
45316;SDS011;31053;55.870;37.592;2023-04-01T07:27:47;7.60;;;4.70;;
45316;SDS011;31053;55.870;37.592;2023-04-01T07:30:58;5.05;;;3.47;;
45316;SDS011;31053;55.870;37.592;2023-04-01T07:37:42;8.93;;;6.05;;
45316;SDS011;31053;55.870;37.592;2023-04-01T07:41:14;13.13;;;7.00;;
45316;SDS011;31053;55.870;37.592;2023-04-01T07:48:25;14.05;;;6.80;;
45316;SDS011;31053;55.870;37.592;2023-04-01T07:52:24;15.48;;;7.82;;
45316;SDS011;31053;55.870;37.592;2023-04-01T07:55:54;18.93;;;7.57;;
45316;SDS011;31053;55.870;37.592;2023-04-01T08:05:53;11.00;;;7.03;;
45316;SDS011;31053;55.870;37.592;2023-04-01T08:13:25;18.90;;;8.15;;
45316;SDS011;31053;55.870;37.592;2023-04-01T08:23:57;13.75;;;7.38;;
45316;SDS011;31053;55.870;37.592;2023-04-01T08:27:03;15.93;;;7.82;;
45316;SDS011;31053;55.870;37.592;2023-04-01T08:30:21;16.90;;;6.60;;
45316;SDS011;31053;55.870;37.592;2023-04-01T08:33:31;13.27;;;7.55;;
45316;SDS011;31053;55.870;37.592;2023-04-01T08:36:46;14.52;;;8.25;;
45316;SDS011;31053;55.870;37.592;2023-04-01T08:39:59;16.13;;;8.25;;
45316;SDS011;31053;55.870;37.592;2023-04-01T08:43:16;18.17;;;9.40;;
45316;SDS011;31053;55.870;37.592;2023-04-01T09:18:43;9.35;;;5.25;;
45316;SDS011;31053;55.870;37.592;2023-04-01T09:25:51;17.60;;;6.80;;
45316;SDS011;31053;55.870;37.592;2023-04-01T09:29:11;16.00;;;6.45;;
45316;SDS011;31053;55.870;37.592;2023-04-01T10:00:15;13.20;;;5.20;;
45316;SDS011;31053;55.870;37.592;2023-04-01T10:07:26;13.32;;;6.00;;
45316;SDS011;31053;55.870;37.592;2023-04-01T10:17:58;9.65;;;4.97;;
45316;SDS011;31053;55.870;37.592;2023-04-01T10:34:27;9.07;;;5.28;;
45316;SDS011;31053;55.870;37.592;2023-04-01T11:36:03;12.88;;;4.28;;
45316;SDS011;31053;55.870;37.592;2023-04-01T11:53:27;5.20;;;3.38;;
45316;SDS011;31053;55.870;37.592;2023-04-01T12:04:12;7.00;;;3.85;;
45316;SDS011;31053;55.870;37.592;2023-04-01T12:07:34;26.52;;;3.92;;
45316;SDS011;31053;55.870;37.592;2023-04-01T12:14:36;12.73;;;4.10;;
45316;SDS011;31053;55.870;37.592;2023-04-01T12:18:10;15.23;;;4.95;;
45316;SDS011;31053;55.870;37.592;2023-04-01T12:35:29;10.63;;;5.15;;
45316;SDS011;31053;55.870;37.592;2023-04-01T12:53:04;12.50;;;4.10;;
45316;SDS011;31053;55.870;37.592;2023-04-01T13:09:32;5.00;;;2.85;;
45316;SDS011;31053;55.870;37.592;2023-04-01T13:12:50;13.90;;;4.10;;
45316;SDS011;31053;55.870;37.592;2023-04-01T13:16:11;8.40;;;3.97;;
45316;SDS011;31053;55.870;37.592;2023-04-01T13:19:21;6.10;;;2.50;;
45316;SDS011;31053;55.870;37.592;2023-04-01T13:22:54;25.25;;;5.18;;
45316;SDS011;31053;55.870;37.592;2023-04-01T13:26:22;9.43;;;4.20;;
45316;SDS011;31053;55.870;37.592;2023-04-01T13:33:21;7.93;;;3.13;;
45316;SDS011;31053;55.870;37.592;2023-04-01T13:37:34;11.40;;;3.63;;
45316;SDS011;31053;55.870;37.592;2023-04-01T13:57:14;12.30;;;4.75;;
45316;SDS011;31053;55.870;37.592;2023-04-01T14:14:53;13.77;;;6.50;;
45316;SDS011;31053;55.870;37.592;2023-04-01T14:18:45;11.73;;;5.90;;
45316;SDS011;31053;55.870;37.592;2023-04-01T14:25:39;20.42;;;6.85;;
45316;SDS011;31053;55.870;37.592;2023-04-01T14:28:59;20.25;;;6.40;;
45316;SDS011;31053;55.870;37.592;2023-04-01T14:32:17;8.45;;;4.78;;
45316;SDS011;31053;55.870;37.592;2023-04-01T14:42:58;19.65;;;6.60;;
45316;SDS011;31053;55.870;37.592;2023-04-01T14:52:42;19.15;;;5.78;;
45316;SDS011;31053;55.870;37.592;2023-04-01T14:56:00;13.48;;;5.97;;
45316;SDS011;31053;55.870;37.592;2023-04-01T15:05:46;15.52;;;5.72;;
45316;SDS011;31053;55.870;37.592;2023-04-01T15:08:57;25.13;;;6.63;;
45316;SDS011;31053;55.870;37.592;2023-04-01T15:12:19;13.50;;;5.57;;
45316;SDS011;31053;55.870;37.592;2023-04-01T15:15:39;18.52;;;6.72;;
45316;SDS011;31053;55.870;37.592;2023-04-01T15:19:11;18.88;;;7.35;;
45316;SDS011;31053;55.870;37.592;2023-04-01T15:29:06;10.65;;;5.53;;
45316;SDS011;31053;55.870;37.592;2023-04-01T15:38:48;14.27;;;8.13;;
45316;SDS011;31053;55.870;37.592;2023-04-01T15:48:46;18.95;;;7.82;;
45316;SDS011;31053;55.870;37.592;2023-04-01T15:55:27;16.02;;;7.50;;
45316;SDS011;31053;55.870;37.592;2023-04-01T15:58:40;18.77;;;8.90;;
45316;SDS011;31053;55.870;37.592;2023-04-01T16:02:21;12.48;;;6.95;;
45316;SDS011;31053;55.870;37.592;2023-04-01T16:13:00;16.15;;;7.78;;
45316;SDS011;31053;55.870;37.592;2023-04-01T16:20:02;17.77;;;9.13;;
45316;SDS011;31053;55.870;37.592;2023-04-01T16:26:42;9.18;;;5.25;;
45316;SDS011;31053;55.870;37.592;2023-04-01T16:30:01;19.25;;;8.32;;
45316;SDS011;31053;55.870;37.592;2023-04-01T16:36:45;16.10;;;6.80;;
45316;SDS011;31053;55.870;37.592;2023-04-01T16:43:28;10.25;;;6.00;;
45316;SDS011;31053;55.870;37.592;2023-04-01T16:46:40;19.27;;;8.60;;
45316;SDS011;31053;55.870;37.592;2023-04-01T16:49:51;15.38;;;7.38;;
45316;SDS011;31053;55.870;37.592;2023-04-01T16:53:09;12.60;;;5.57;;
45316;SDS011;31053;55.870;37.592;2023-04-01T16:56:23;10.07;;;4.60;;
45316;SDS011;31053;55.870;37.592;2023-04-01T16:59:33;10.13;;;5.30;;
45316;SDS011;31053;55.870;37.592;2023-04-01T17:02:47;17.63;;;7.07;;
45316;SDS011;31053;55.870;37.592;2023-04-01T17:09:18;14.30;;;6.35;;
45316;SDS011;31053;55.870;37.592;2023-04-01T17:19:49;11.80;;;6.57;;
45316;SDS011;31053;55.870;37.592;2023-04-01T17:50:21;14.30;;;7.45;;
45316;SDS011;31053;55.870;37.592;2023-04-01T17:59:55;12.27;;;6.80;;
45316;SDS011;31053;55.870;37.592;2023-04-01T18:24:22;14.85;;;7.43;;
45316;SDS011;31053;55.870;37.592;2023-04-01T18:41:06;16.23;;;7.28;;
45316;SDS011;31053;55.870;37.592;2023-04-01T18:44:48;16.40;;;6.70;;
45316;SDS011;31053;55.870;37.592;2023-04-01T18:51:39;15.45;;;8.27;;
45316;SDS011;31053;55.870;37.592;2023-04-01T18:58:52;14.70;;;8.55;;
45316;SDS011;31053;55.870;37.592;2023-04-01T19:05:04;14.90;;;7.40;;
45316;SDS011;31053;55.870;37.592;2023-04-01T19:08:22;15.00;;;8.23;;
45316;SDS011;31053;55.870;37.592;2023-04-01T19:12:12;15.40;;;8.43;;
45316;SDS011;31053;55.870;37.592;2023-04-01T19:21:46;16.00;;;8.32;;
45316;SDS011;31053;55.870;37.592;2023-04-01T19:28:20;13.32;;;7.97;;
45316;SDS011;31053;55.870;37.592;2023-04-01T19:38:14;18.90;;;9.23;;
45316;SDS011;31053;55.870;37.592;2023-04-01T19:57:58;12.90;;;8.25;;
45316;SDS011;31053;55.870;37.592;2023-04-01T20:01:22;12.45;;;7.18;;
45316;SDS011;31053;55.870;37.592;2023-04-01T20:04:40;18.73;;;10.10;;
45316;SDS011;31053;55.870;37.592;2023-04-01T20:07:50;19.77;;;8.43;;
45316;SDS011;31053;55.870;37.592;2023-04-01T20:17:59;12.73;;;7.72;;
45316;SDS011;31053;55.870;37.592;2023-04-01T20:24:28;16.33;;;8.38;;
45316;SDS011;31053;55.870;37.592;2023-04-01T20:27:37;15.23;;;7.28;;
45316;SDS011;31053;55.870;37.592;2023-04-01T20:31:52;13.82;;;7.60;;
45316;SDS011;31053;55.870;37.592;2023-04-01T20:44:46;13.73;;;7.63;;
45316;SDS011;31053;55.870;37.592;2023-04-01T20:49:10;27.75;;;10.50;;
45316;SDS011;31053;55.870;37.592;2023-04-01T20:51:53;22.77;;;10.30;;
45316;SDS011;31053;55.870;37.592;2023-04-01T20:55:05;19.42;;;8.57;;
45316;SDS011;31053;55.870;37.592;2023-04-01T20:58:28;11.70;;;6.15;;
45316;SDS011;31053;55.870;37.592;2023-04-01T21:01:40;18.27;;;8.55;;
45316;SDS011;31053;55.870;37.592;2023-04-01T21:08:38;20.92;;;10.35;;
45316;SDS011;31053;55.870;37.592;2023-04-01T21:15:40;14.30;;;6.28;;
45316;SDS011;31053;55.870;37.592;2023-04-01T22:07:41;20.98;;;9.57;;
45316;SDS011;31053;55.870;37.592;2023-04-01T22:17:29;14.85;;;7.65;;
45316;SDS011;31053;55.870;37.592;2023-04-01T22:20:38;17.35;;;8.98;;
45316;SDS011;31053;55.870;37.592;2023-04-01T22:24:02;11.25;;;6.15;;
45316;SDS011;31053;55.870;37.592;2023-04-01T22:30:33;19.50;;;10.95;;
45316;SDS011;31053;55.870;37.592;2023-04-01T22:41:13;21.70;;;10.90;;
45316;SDS011;31053;55.870;37.592;2023-04-01T22:48:01;23.52;;;12.15;;
45316;SDS011;31053;55.870;37.592;2023-04-01T22:51:25;17.50;;;9.48;;
45316;SDS011;31053;55.870;37.592;2023-04-01T22:54:56;19.77;;;10.20;;
45316;SDS011;31053;55.870;37.592;2023-04-01T22:58:05;23.63;;;11.48;;
45316;SDS011;31053;55.870;37.592;2023-04-01T23:01:15;25.33;;;12.38;;
45316;SDS011;31053;55.870;37.592;2023-04-01T23:04:28;20.58;;;12.43;;
45316;SDS011;31053;55.870;37.592;2023-04-01T23:14:32;17.15;;;10.15;;
45316;SDS011;31053;55.870;37.592;2023-04-01T23:24:30;16.70;;;9.02;;
45316;SDS011;31053;55.870;37.592;2023-04-01T23:27:44;19.05;;;10.25;;
45316;SDS011;31053;55.870;37.592;2023-04-01T23:34:33;26.85;;;12.68;;
45316;SDS011;31053;55.870;37.592;2023-04-01T23:37:39;33.63;;;12.77;;
45316;SDS011;31053;55.870;37.592;2023-04-01T23:40:44;20.52;;;9.90;;
45316;SDS011;31053;55.870;37.592;2023-04-01T23:43:55;23.55;;;10.80;;
45316;SDS011;31053;55.870;37.592;2023-04-01T23:47:00;23.77;;;11.73;;
45316;SDS011;31053;55.870;37.592;2023-04-01T23:50:13;26.17;;;13.57;;
45316;SDS011;31053;55.870;37.592;2023-04-01T23:53:36;18.13;;;10.20;;
45316;SDS011;31053;55.870;37.592;2023-04-01T23:56:50;29.27;;;14.75;;
